Shipshaw, Canada
Current Conditions -  °F | °C
As of 8:00 PM on Saturday 22 Nov 2014 (Local Time) from CYBG Reporting Station
Blowing Snow Blowing Snow  
Wind Chill: 22°   Ceiling: 2000
Heat Index: 32°   Visibility: 15mi
Dew Point: 28°   Wind: 15mph
Humidity: 87%   Direction: 250°WSW
Pressure: 29.69"   Gusts: 22mph
Location:  48.45°N, 71.22°W
Report Text: CYBG 230100Z 25013G19KT 15SM -SHSN DRSN BKN020 OVC030 00/M02 A2969 RMK SC6SC2 SLP064
Loading
Personal Weather Stations






























Interactive Weather Map New forecast layout! Learn more

10-Day Weather Forecast

Advertisements
Track Severe Weather on mobile